Time;durP1;ratioP1;P1;durP2;ratioP2;P2;SDS_P1;SDS_P2;PMS_P1;PMS_P2;Temp;Humidity;BMP_temperature;BMP_pressure;BME280_temperature;BME280_humidity;BME280_pressure;Samples;Min_cycle;Max_cycle;Signal;HPM_P1;HPM_P2
2023/06/02 00:00:19;;;;;;;6.75;2.10;;;12.30;99.90;;;;;;5073065;28;20044;-85
2023/06/02 00:02:51;;;;;;;8.52;2.08;;;12.10;99.90;;;;;;5055371;28;20048;-85
2023/06/02 00:05:18;;;;;;;7.70;2.03;;;12.10;99.90;;;;;;5073069;28;20055;-85
2023/06/02 00:07:46;;;;;;;8.23;1.88;;;12.10;99.90;;;;;;5072653;28;20059;-85
2023/06/02 00:10:12;;;;;;;8.13;1.75;;;12.10;99.90;;;;;;5055767;28;20386;-85
2023/06/02 00:12:39;;;;;;;4.93;1.92;;;12.10;99.90;;;;;;5056557;28;20091;-85
2023/06/02 00:15:07;;;;;;;5.47;1.63;;;12.10;99.90;;;;;;5056788;28;20051;-85
2023/06/02 00:17:34;;;;;;;5.68;1.50;;;12.00;99.90;;;;;;5071951;28;20107;-85
2023/06/02 00:20:01;;;;;;;4.90;1.60;;;12.00;99.90;;;;;;5073213;28;20125;-86
2023/06/02 00:22:29;;;;;;;6.28;1.70;;;12.10;99.90;;;;;;5072211;28;20110;-85
2023/06/02 00:24:56;;;;;;;5.68;1.58;;;12.10;99.90;;;;;;5073204;28;20044;-85
2023/06/02 00:27:22;;;;;;;7.15;1.70;;;12.00;99.90;;;;;;5073632;28;20153;-86
2023/06/02 00:29:50;;;;;;;4.55;1.50;;;12.00;99.90;;;;;;5074606;28;20063;-85
2023/06/02 00:32:16;;;;;;;6.03;1.45;;;12.00;99.90;;;;;;5076723;28;20102;-86
2023/06/02 00:34:43;;;;;;;7.07;1.63;;;12.00;99.90;;;;;;5076623;28;20102;-85
2023/06/02 00:37:10;;;;;;;4.68;1.45;;;12.00;99.90;;;;;;5058302;28;20041;-85
2023/06/02 00:39:37;;;;;;;5.05;1.55;;;12.00;99.90;;;;;;5060018;28;20051;-85
2023/06/02 00:42:03;;;;;;;3.70;1.30;;;12.00;99.90;;;;;;5074694;28;20053;-85
2023/06/02 00:44:30;;;;;;;6.80;1.58;;;12.00;99.90;;;;;;5075261;28;20075;-85
2023/06/02 00:46:57;;;;;;;4.43;1.55;;;11.90;99.90;;;;;;5076453;28;20037;-85
2023/06/02 00:49:26;;;;;;;4.45;1.60;;;11.90;99.90;;;;;;5074888;28;20106;-85
2023/06/02 00:51:52;;;;;;;4.18;1.30;;;11.90;99.90;;;;;;5076512;28;20040;-85
2023/06/02 00:54:19;;;;;;;6.70;1.73;;;11.90;99.90;;;;;;5076378;28;20106;-85
2023/06/02 00:56:47;;;;;;;10.10;1.70;;;11.90;99.90;;;;;;5075206;28;20041;-84
2023/06/02 00:59:14;;;;;;;6.93;1.70;;;11.80;99.90;;;;;;5075960;28;20128;-85
2023/06/02 01:01:41;;;;;;;7.13;1.75;;;11.80;99.90;;;;;;5076328;28;20040;-85
2023/06/02 01:04:08;;;;;;;13.38;2.10;;;11.80;99.90;;;;;;5058642;28;20051;-85
2023/06/02 01:06:36;;;;;;;6.75;1.50;;;11.80;99.90;;;;;;5059506;28;20044;-85
2023/06/02 01:09:03;;;;;;;3.20;1.15;;;11.80;99.90;;;;;;5059196;28;20083;-85
2023/06/02 01:11:30;;;;;;;3.00;1.27;;;11.80;99.90;;;;;;5074742;28;20459;-85
2023/06/02 01:13:57;;;;;;;3.63;1.30;;;11.80;99.90;;;;;;5059087;28;20052;-85
2023/06/02 01:16:23;;;;;;;5.35;1.45;;;11.80;99.90;;;;;;5075136;28;20051;-85
2023/06/02 01:18:51;;;;;;;3.90;1.23;;;11.90;99.90;;;;;;5058992;28;20433;-85
2023/06/02 01:21:23;;;;;;;2.92;1.05;;;11.80;99.90;;;;;;5075828;28;20044;-85
2023/06/02 01:23:50;;;;;;;2.90;1.17;;;11.70;99.90;;;;;;5074810;28;20063;-85
2023/06/02 01:26:17;;;;;;;3.20;1.02;;;11.70;99.90;;;;;;5076114;28;20040;-86
2023/06/02 01:28:43;;;;;;;7.00;1.33;;;11.70;99.90;;;;;;5074908;28;20044;-85
2023/06/02 01:31:11;;;;;;;4.03;1.10;;;11.70;99.90;;;;;;5074489;28;20051;-85
2023/06/02 01:33:37;;;;;;;2.70;1.15;;;11.70;99.90;;;;;;5058875;28;20044;-85
2023/06/02 01:36:04;;;;;;;3.17;1.20;;;11.60;99.90;;;;;;5057397;28;20060;-86
2023/06/02 01:38:31;;;;;;;7.20;1.30;;;11.60;99.90;;;;;;5058415;28;20110;-85
2023/06/02 01:40:59;;;;;;;7.15;1.20;;;11.70;99.90;;;;;;5074161;28;20131;-85
2023/06/02 01:43:25;;;;;;;3.88;1.15;;;11.70;99.90;;;;;;5056086;28;20044;-85
2023/06/02 01:45:52;;;;;;;3.50;1.33;;;11.60;99.90;;;;;;5038483;28;20049;-85
2023/06/02 01:48:19;;;;;;;6.22;1.23;;;11.60;99.90;;;;;;5021547;28;20041;-85
2023/06/02 01:50:45;;;;;;;3.67;1.20;;;11.60;99.90;;;;;;5054897;28;20610;-85
2023/06/02 01:53:13;;;;;;;4.10;1.00;;;11.60;99.90;;;;;;5022343;28;20456;-85
2023/06/02 01:55:41;;;;;;;5.82;1.13;;;11.70;99.90;;;;;;5022241;28;20043;-85
2023/06/02 01:58:07;;;;;;;10.05;1.40;;;11.70;99.90;;;;;;5054607;28;20028;-85
2023/06/02 02:00:34;;;;;;;7.38;1.20;;;11.70;99.90;;;;;;5021967;28;20048;-85
2023/06/02 02:03:02;;;;;;;3.90;1.20;;;11.70;99.90;;;;;;5037045;28;20045;-84
2023/06/02 02:05:29;;;;;;;6.00;1.58;;;11.60;99.90;;;;;;5038434;28;20048;-85
2023/06/02 02:07:57;;;;;;;5.78;1.42;;;11.60;99.90;;;;;;5037982;28;20051;-85
2023/06/02 02:10:24;;;;;;;4.47;1.30;;;11.50;99.90;;;;;;5037249;28;20435;-85
2023/06/02 02:12:50;;;;;;;3.90;1.15;;;11.50;99.90;;;;;;5038464;28;20037;-85
2023/06/02 02:15:18;;;;;;;5.45;1.33;;;11.50;99.90;;;;;;5021534;28;20041;-85
2023/06/02 02:17:45;;;;;;;5.93;1.67;;;11.50;99.90;;;;;;5020156;28;20048;-86
2023/06/02 02:20:12;;;;;;;7.65;1.40;;;11.50;99.90;;;;;;5021499;28;20059;-85
2023/06/02 02:22:39;;;;;;;9.77;2.75;;;11.50;99.90;;;;;;5036943;28;20048;-86
2023/06/02 02:25:06;;;;;;;5.65;1.58;;;11.50;99.90;;;;;;5037847;28;20455;-85
2023/06/02 02:27:33;;;;;;;5.50;1.42;;;11.50;99.90;;;;;;5021195;28;20055;-85
2023/06/02 02:30:00;;;;;;;6.57;1.60;;;11.40;99.90;;;;;;5036754;28;20060;-86
2023/06/02 02:32:27;;;;;;;4.07;1.35;;;11.40;99.90;;;;;;5055614;28;20055;-85
2023/06/02 02:34:54;;;;;;;4.18;1.40;;;11.50;99.90;;;;;;5037799;28;20048;-85
2023/06/02 02:37:22;;;;;;;8.00;1.52;;;11.40;99.90;;;;;;5036490;28;20041;-85
2023/06/02 02:40:07;;;;;;;9.07;1.48;;;11.50;99.90;;;;;;5037822;28;20128;-85
2023/06/02 02:42:34;;;;;;;8.38;2.10;;;11.40;99.90;;;;;;5036730;28;20289;-86
2023/06/02 02:45:02;;;;;;;5.43;1.65;;;11.40;99.90;;;;;;5062611;28;20424;-85
2023/06/02 02:47:31;;;;;;;14.40;1.75;;;11.40;99.90;;;;;;5073826;28;20151;-86
2023/06/02 02:49:59;;;;;;;6.07;1.50;;;11.40;99.90;;;;;;5056649;28;20048;-86
2023/06/02 02:52:28;;;;;;;3.13;1.40;;;11.40;99.90;;;;;;5057594;28;20037;-86
2023/06/02 02:54:56;;;;;;;5.57;1.63;;;11.30;99.90;;;;;;5074291;28;20045;-86
2023/06/02 02:57:22;;;;;;;7.57;1.95;;;11.30;99.90;;;;;;5072777;28;20376;-86
2023/06/02 02:59:49;;;;;;;5.85;1.90;;;11.30;99.90;;;;;;5057446;28;20105;-86
2023/06/02 03:02:17;;;;;;;9.80;1.73;;;11.30;99.90;;;;;;5057465;28;20135;-86
2023/06/02 03:04:43;;;;;;;6.05;1.80;;;11.30;99.90;;;;;;5056149;28;20048;-86
2023/06/02 03:07:11;;;;;;;7.55;1.60;;;11.40;99.90;;;;;;5073357;28;20459;-86
2023/06/02 03:09:40;;;;;;;4.78;1.73;;;11.40;99.90;;;;;;5056647;28;20045;-86
2023/06/02 03:12:07;;;;;;;9.35;2.22;;;11.40;99.90;;;;;;5057052;28;20043;-86
2023/06/02 03:14:34;;;;;;;6.78;2.17;;;11.40;99.90;;;;;;5057243;28;20447;-86
2023/06/02 03:17:02;;;;;;;5.85;1.90;;;11.40;99.90;;;;;;5072520;28;20047;-86
2023/06/02 03:19:30;;;;;;;7.05;2.03;;;11.40;99.90;;;;;;5073945;28;20044;-85
2023/06/02 03:21:57;;;;;;;7.75;2.10;;;11.40;99.90;;;;;;5057221;28;20079;-86
2023/06/02 03:24:25;;;;;;;4.78;1.45;;;11.40;99.90;;;;;;5072574;28;20097;-86
2023/06/02 03:26:55;;;;;;;6.03;1.95;;;11.40;99.90;;;;;;5073531;28;20048;-86
2023/06/02 03:29:22;;;;;;;10.98;2.08;;;11.40;99.90;;;;;;5056453;28;20048;-86
2023/06/02 03:31:49;;;;;;;9.32;2.55;;;11.30;99.90;;;;;;5073535;28;20040;-86
2023/06/02 03:34:18;;;;;;;9.60;2.15;;;11.30;99.90;;;;;;5057551;28;20140;-85
2023/06/02 03:36:44;;;;;;;9.73;1.95;;;11.20;99.90;;;;;;5072431;28;20071;-86
2023/06/02 03:39:13;;;;;;;6.60;1.90;;;11.20;99.90;;;;;;5073993;28;20048;-86
2023/06/02 03:41:42;;;;;;;7.50;2.38;;;11.20;99.90;;;;;;5073723;28;20340;-86
2023/06/02 03:44:09;;;;;;;9.63;2.92;;;11.30;99.90;;;;;;5072549;28;20476;-86
2023/06/02 03:46:36;;;;;;;11.63;2.10;;;11.30;99.90;;;;;;5073576;28;20044;-86
2023/06/02 03:49:05;;;;;;;8.70;1.92;;;11.30;99.90;;;;;;5072981;28;20048;-86
2023/06/02 03:51:32;;;;;;;6.15;1.83;;;11.30;99.90;;;;;;5055887;28;20037;-86
2023/06/02 03:54:00;;;;;;;9.55;1.90;;;11.40;99.90;;;;;;5057477;28;20044;-86
2023/06/02 03:56:27;;;;;;;7.85;2.00;;;11.30;99.90;;;;;;5055775;28;20047;-85
2023/06/02 03:58:55;;;;;;;11.85;2.40;;;11.40;99.90;;;;;;5073179;28;20032;-86
2023/06/02 04:01:23;;;;;;;9.88;2.10;;;11.30;99.90;;;;;;5057289;28;20051;-86
2023/06/02 04:03:52;;;;;;;6.13;1.92;;;11.30;99.90;;;;;;5057314;28;20052;-86
2023/06/02 04:06:20;;;;;;;8.10;1.90;;;11.20;99.90;;;;;;5060651;28;20048;-86
2023/06/02 04:08:47;;;;;;;9.57;1.88;;;11.10;99.90;;;;;;5060328;28;20082;-86
2023/06/02 04:11:14;;;;;;;13.70;2.33;;;11.10;99.90;;;;;;5075836;28;20494;-86
2023/06/02 04:13:42;;;;;;;4.55;1.95;;;11.20;99.90;;;;;;5060698;28;20047;-86
2023/06/02 04:16:09;;;;;;;6.72;1.95;;;11.10;99.90;;;;;;5059697;28;20479;-86
2023/06/02 04:18:38;;;;;;;10.73;2.20;;;11.20;99.90;;;;;;5060170;28;20040;-86
2023/06/02 04:21:06;;;;;;;5.63;2.28;;;11.10;99.90;;;;;;5077157;28;20055;-86
2023/06/02 04:23:34;;;;;;;12.70;2.55;;;11.10;99.90;;;;;;5059252;28;20240;-86
2023/06/02 04:26:01;;;;;;;8.40;2.15;;;11.10;99.90;;;;;;5049883;28;20470;-86
2023/06/02 04:28:28;;;;;;;7.45;1.95;;;11.10;99.90;;;;;;5074225;28;20058;-86
2023/06/02 04:30:55;;;;;;;15.73;2.08;;;11.10;99.90;;;;;;5071094;28;20128;-86
2023/06/02 04:33:25;;;;;;;11.63;2.10;;;11.20;99.90;;;;;;5056920;28;20482;-86
2023/06/02 04:35:52;;;;;;;11.63;2.17;;;11.30;99.90;;;;;;5055404;28;20045;-85
2023/06/02 04:38:19;;;;;;;11.35;2.45;;;11.30;99.90;;;;;;5056628;28;20551;-86
2023/06/02 04:40:47;;;;;;;13.82;2.78;;;11.30;99.90;;;;;;5056771;28;20045;-86
2023/06/02 04:43:15;;;;;;;11.90;1.88;;;11.20;99.90;;;;;;5060712;28;20063;-85
2023/06/02 04:45:45;;;;;;;6.93;2.00;;;11.20;99.90;;;;;;5061212;28;20356;-85
2023/06/02 04:48:16;;;;;;;7.75;2.53;;;11.20;99.90;;;;;;5095623;28;20024;-85
2023/06/02 04:50:43;;;;;;;10.57;2.38;;;11.20;99.90;;;;;;5074653;28;20045;-86
2023/06/02 04:53:11;;;;;;;11.27;2.08;;;11.30;99.90;;;;;;5075598;28;20045;-85
2023/06/02 04:55:37;;;;;;;5.82;1.83;;;11.30;99.90;;;;;;5071594;28;20056;-84
2023/06/02 04:58:04;;;;;;;7.90;1.98;;;11.20;99.90;;;;;;5087232;28;20036;-85
2023/06/02 05:00:32;;;;;;;15.45;2.50;;;11.20;99.90;;;;;;5076771;28;20051;-85
2023/06/02 05:02:59;;;;;;;10.52;2.10;;;11.30;99.90;;;;;;5091130;28;20060;-85
2023/06/02 05:05:28;;;;;;;12.57;2.38;;;11.30;99.90;;;;;;5071957;28;20051;-86
2023/06/02 05:07:55;;;;;;;8.70;1.90;;;11.30;99.90;;;;;;5075118;28;20155;-85
2023/06/02 05:10:23;;;;;;;13.35;2.50;;;11.30;99.90;;;;;;5072725;28;20067;-86
2023/06/02 05:12:52;;;;;;;9.02;2.08;;;11.30;99.90;;;;;;5075390;28;20094;-85
2023/06/02 05:15:19;;;;;;;8.40;2.22;;;11.30;99.90;;;;;;5084416;28;20036;-85
2023/06/02 05:17:48;;;;;;;9.48;2.05;;;11.30;99.90;;;;;;5059377;28;20040;-86
2023/06/02 05:20:18;;;;;;;7.47;2.20;;;11.40;99.90;;;;;;5076274;28;20128;-86
2023/06/02 05:22:45;;;;;;;11.00;2.38;;;11.40;99.90;;;;;;5075373;28;20364;-85
2023/06/02 05:25:12;;;;;;;9.00;2.17;;;11.40;99.90;;;;;;5075896;28;20064;-87
2023/06/02 05:27:40;;;;;;;7.32;1.83;;;11.30;99.90;;;;;;5059848;28;20068;-85
2023/06/02 05:30:08;;;;;;;7.40;2.38;;;11.30;99.90;;;;;;5058607;28;20375;-86
2023/06/02 05:32:35;;;;;;;7.18;2.17;;;11.30;99.90;;;;;;5075835;28;20049;-86
2023/06/02 05:35:04;;;;;;;9.95;2.20;;;11.40;99.90;;;;;;5059234;28;20075;-86
2023/06/02 05:37:31;;;;;;;9.48;1.95;;;11.40;99.90;;;;;;5057990;28;20048;-86
2023/06/02 05:39:58;;;;;;;12.55;2.80;;;11.30;99.90;;;;;;5059333;28;20044;-86
2023/06/02 05:42:26;;;;;;;8.90;2.67;;;11.30;99.90;;;;;;5075146;28;20110;-86
2023/06/02 05:44:53;;;;;;;10.50;2.17;;;11.40;99.90;;;;;;5074914;28;20479;-86
2023/06/02 05:47:21;;;;;;;7.65;2.33;;;11.40;99.90;;;;;;5058864;28;20041;-85
2023/06/02 05:49:49;;;;;;;9.48;2.17;;;11.30;99.90;;;;;;5058187;28;20059;-85
2023/06/02 05:52:16;;;;;;;11.65;2.33;;;11.40;99.90;;;;;;5058868;28;20041;-86
2023/06/02 05:54:43;;;;;;;8.05;1.92;;;11.40;99.90;;;;;;5058412;28;20055;-86
2023/06/02 05:57:11;;;;;;;10.00;2.22;;;11.40;99.90;;;;;;5057899;28;20040;-86
2023/06/02 05:59:39;;;;;;;7.57;2.38;;;11.40;99.90;;;;;;5058674;28;20045;-85
2023/06/02 06:02:06;;;;;;;11.77;2.78;;;11.40;99.90;;;;;;5058699;28;20044;-86
2023/06/02 06:04:33;;;;;;;5.18;2.10;;;11.40;99.90;;;;;;5057301;28;20074;-86
2023/06/02 06:07:02;;;;;;;9.40;2.42;;;11.40;99.90;;;;;;5058753;28;20049;-86
2023/06/02 06:09:30;;;;;;;9.55;2.50;;;11.40;99.90;;;;;;5057733;28;20041;-86
2023/06/02 06:11:59;;;;;;;9.70;2.30;;;11.40;99.90;;;;;;5058947;28;20051;-85
2023/06/02 06:14:27;;;;;;;9.13;2.28;;;11.40;99.90;;;;;;5074567;28;20451;-86
2023/06/02 06:16:54;;;;;;;9.80;2.45;;;11.50;99.90;;;;;;5074354;28;20041;-86
2023/06/02 06:19:20;;;;;;;8.88;2.40;;;11.50;99.90;;;;;;5058256;28;20123;-86
2023/06/02 06:21:47;;;;;;;6.60;2.30;;;11.50;99.90;;;;;;5058144;28;20048;-86
2023/06/02 06:24:14;;;;;;;5.78;1.92;;;11.50;99.90;;;;;;5057093;28;20097;-85
2023/06/02 06:26:42;;;;;;;8.50;2.08;;;11.50;99.90;;;;;;5074031;28;20063;-86
2023/06/02 06:29:09;;;;;;;12.63;2.28;;;11.60;99.90;;;;;;5073578;28;20040;-86
2023/06/02 06:31:36;;;;;;;8.60;2.65;;;11.70;99.90;;;;;;5057438;28;20048;-86
2023/06/02 06:34:05;;;;;;;13.68;2.47;;;11.70;99.90;;;;;;5057897;28;20383;-86
2023/06/02 06:36:33;;;;;;;11.02;2.55;;;11.70;99.90;;;;;;5056283;28;20045;-86
2023/06/02 06:39:01;;;;;;;12.65;2.92;;;11.70;99.90;;;;;;5074211;28;20135;-85
2023/06/02 06:41:29;;;;;;;7.63;2.20;;;11.80;99.90;;;;;;5057718;28;20044;-86
2023/06/02 06:44:01;;;;;;;6.93;1.90;;;11.80;99.90;;;;;;5057191;28;20076;-86
2023/06/02 06:46:27;;;;;;;9.32;2.50;;;11.70;99.90;;;;;;5073443;28;20059;-85
2023/06/02 06:48:54;;;;;;;9.13;2.40;;;11.70;99.90;;;;;;5071836;28;20066;-86
2023/06/02 06:51:21;;;;;;;10.88;2.65;;;11.80;99.90;;;;;;5055273;28;20051;-86
2023/06/02 06:53:48;;;;;;;6.40;2.20;;;11.80;99.90;;;;;;5074302;28;20094;-86
2023/06/02 06:56:15;;;;;;;8.52;2.10;;;11.80;99.90;;;;;;5072129;28;20456;-86
2023/06/02 06:58:42;;;;;;;11.07;2.05;;;11.80;99.90;;;;;;5057143;28;20064;-85
2023/06/02 07:01:08;;;;;;;10.38;2.78;;;11.80;99.90;;;;;;5065341;28;20366;-86
2023/06/02 07:03:35;;;;;;;7.50;2.20;;;11.80;99.90;;;;;;5092796;28;20470;-85
2023/06/02 07:06:02;;;;;;;7.78;2.38;;;11.80;99.90;;;;;;5076694;28;20062;-86
2023/06/02 07:08:30;;;;;;;12.93;2.38;;;12.00;99.90;;;;;;5076472;28;20040;-85
2023/06/02 07:10:56;;;;;;;10.50;2.65;;;12.00;99.90;;;;;;5075458;28;20052;-86
2023/06/02 07:13:23;;;;;;;9.77;2.60;;;12.00;99.90;;;;;;5076432;28;20040;-85
2023/06/02 07:15:50;;;;;;;12.65;2.70;;;12.00;99.90;;;;;;5092130;28;20346;-86
2023/06/02 07:18:17;;;;;;;7.63;1.92;;;12.10;99.90;;;;;;5076685;28;20040;-85
2023/06/02 07:20:47;;;;;;;7.18;2.13;;;12.10;99.90;;;;;;5062780;28;20052;-85
2023/06/02 07:23:14;;;;;;;8.40;2.53;;;12.20;99.90;;;;;;5055929;28;20041;-85
2023/06/02 07:25:41;;;;;;;7.35;2.28;;;12.10;99.90;;;;;;5056179;28;20075;-85
2023/06/02 07:28:07;;;;;;;8.07;2.75;;;12.10;99.90;;;;;;5056518;28;20044;-85
2023/06/02 07:30:35;;;;;;;12.55;2.58;;;12.20;99.90;;;;;;5055639;28;20395;-86
2023/06/02 07:33:02;;;;;;;6.03;2.40;;;12.10;99.90;;;;;;5072698;28;20047;-86
2023/06/02 07:35:29;;;;;;;12.10;2.35;;;12.20;99.90;;;;;;5073216;28;20412;-86
2023/06/02 07:37:56;;;;;;;10.27;2.08;;;12.30;99.90;;;;;;5072222;28;20044;-87
2023/06/02 07:40:23;;;;;;;12.70;2.45;;;12.40;99.90;;;;;;5060576;28;20049;-86
2023/06/02 07:42:49;;;;;;;8.50;2.28;;;12.50;99.90;;;;;;5059714;28;20048;-85
2023/06/02 07:45:16;;;;;;;18.50;3.78;;;12.50;99.90;;;;;;5061397;28;20052;-89
2023/06/02 07:47:43;;;;;;;10.38;2.33;;;12.40;99.90;;;;;;5024130;28;20044;-87
2023/06/02 07:50:10;;;;;;;8.98;2.53;;;12.50;99.90;;;;;;5023625;28;20163;-85
2023/06/02 07:52:37;;;;;;;13.05;1.95;;;12.50;99.90;;;;;;5040831;28;20051;-87
2023/06/02 07:55:04;;;;;;;10.52;2.45;;;12.60;99.90;;;;;;5023212;28;20069;-85
2023/06/02 07:57:31;;;;;;;15.10;2.63;;;12.70;99.90;;;;;;5039567;28;20387;-87
2023/06/02 07:59:58;;;;;;;6.88;2.15;;;12.70;99.90;;;;;;5040521;28;20045;-86
2023/06/02 08:02:24;;;;;;;9.80;2.40;;;12.80;99.90;;;;;;5040203;28;20049;-86
2023/06/02 08:04:51;;;;;;;11.23;2.55;;;12.80;99.90;;;;;;5031253;28;20052;-86
2023/06/02 08:07:18;;;;;;;11.40;2.60;;;12.80;99.90;;;;;;5056697;28;20081;-86
2023/06/02 08:09:45;;;;;;;7.78;2.42;;;12.80;99.90;;;;;;5038361;28;20056;-87
2023/06/02 08:12:15;;;;;;;11.00;2.28;;;12.90;99.90;;;;;;5038666;28;20048;-90
2023/06/02 08:14:59;;;;;;;11.05;2.65;;;13.00;99.90;;;;;;5039536;28;20082;-84
2023/06/02 08:17:34;;;;;;;9.63;2.03;;;13.00;99.90;;;;;;5037943;28;20044;-84
2023/06/02 08:20:01;;;;;;;9.50;2.17;;;13.00;99.90;;;;;;5022282;28;20383;-83
2023/06/02 08:22:30;;;;;;;5.38;1.70;;;13.00;99.90;;;;;;5038327;28;20479;-84
2023/06/02 08:24:58;;;;;;;6.80;1.83;;;13.00;99.90;;;;;;5038939;28;20056;-84
2023/06/02 08:27:26;;;;;;;11.02;1.98;;;13.20;99.90;;;;;;5057362;28;20036;-85
2023/06/02 08:29:59;;;;;;;9.82;2.13;;;13.30;99.90;;;;;;5038973;28;20048;-85
2023/06/02 08:32:27;;;;;;;6.97;1.73;;;13.40;99.90;;;;;;5011298;28;20049;-85
2023/06/02 08:34:55;;;;;;;9.32;2.22;;;13.50;99.90;;;;;;5038119;28;20052;-85
2023/06/02 08:37:21;;;;;;;8.18;1.83;;;13.50;99.90;;;;;;5025861;28;20476;-85
2023/06/02 08:39:48;;;;;;;12.32;2.05;;;13.60;99.90;;;;;;5070428;28;20044;-84
2023/06/02 08:42:15;;;;;;;7.22;2.17;;;13.70;99.90;;;;;;5063095;28;20044;-85
2023/06/02 08:44:42;;;;;;;5.88;1.90;;;13.70;99.90;;;;;;5040444;28;20080;-85
2023/06/02 08:47:11;;;;;;;6.28;1.95;;;13.80;99.90;;;;;;5058901;28;20055;-85
2023/06/02 08:49:38;;;;;;;12.88;2.63;;;13.90;99.90;;;;;;5074679;28;20049;-86
2023/06/02 08:52:04;;;;;;;6.95;2.22;;;13.90;99.90;;;;;;5076186;28;20045;-87
2023/06/02 08:54:34;;;;;;;8.75;2.10;;;13.80;99.90;;;;;;5075607;28;20036;-85
2023/06/02 08:57:03;;;;;;;5.10;1.73;;;13.90;99.90;;;;;;5056256;28;20123;-85
2023/06/02 08:59:30;;;;;;;12.98;2.25;;;13.90;99.90;;;;;;5055909;28;20106;-84
2023/06/02 09:01:57;;;;;;;6.38;1.90;;;14.00;99.90;;;;;;5054367;28;20048;-84
2023/06/02 09:04:23;;;;;;;7.10;2.17;;;14.10;99.90;;;;;;5054644;28;20482;-88
2023/06/02 09:06:50;;;;;;;8.05;1.92;;;14.20;99.90;;;;;;5082891;28;20052;-87
2023/06/02 09:09:17;;;;;;;6.68;1.95;;;14.50;99.90;;;;;;5057328;28;20052;-87
2023/06/02 09:11:44;;;;;;;9.82;1.95;;;14.50;99.90;;;;;;5075598;28;20052;-86
2023/06/02 09:14:11;;;;;;;10.85;2.38;;;14.50;99.90;;;;;;5057878;28;20410;-88
2023/06/02 09:16:37;;;;;;;6.30;1.95;;;14.70;99.90;;;;;;5073720;28;20151;-85
2023/06/02 09:19:04;;;;;;;7.20;2.00;;;14.70;99.90;;;;;;5077063;28;20044;-86
2023/06/02 09:21:33;;;;;;;16.05;2.30;;;14.90;99.90;;;;;;5076526;28;20102;-84
2023/06/02 09:24:00;;;;;;;8.70;1.85;;;14.80;99.90;;;;;;5037585;28;20056;-82
2023/06/02 09:26:39;;;;;;;11.93;1.95;;;14.90;99.90;;;;;;5054683;28;20049;-84
2023/06/02 09:29:06;;;;;;;5.93;2.17;;;15.00;99.90;;;;;;5061832;28;20041;-83
2023/06/02 09:31:33;;;;;;;6.47;2.10;;;15.20;99.90;;;;;;5074096;28;20158;-84
2023/06/02 09:34:00;;;;;;;9.05;2.05;;;15.20;99.90;;;;;;5057503;28;20037;-84
2023/06/02 09:36:29;;;;;;;5.93;1.98;;;15.20;99.90;;;;;;5074022;28;20093;-85
2023/06/02 09:38:56;;;;;;;11.48;2.03;;;15.40;99.90;;;;;;5055071;28;20521;-84
2023/06/02 09:41:28;;;;;;;9.75;2.20;;;15.40;99.90;;;;;;5054690;28;20375;-85
2023/06/02 09:43:55;;;;;;;7.03;2.17;;;15.40;99.90;;;;;;5049329;28;20060;-85
2023/06/02 09:46:22;;;;;;;7.95;2.63;;;15.50;99.90;;;;;;5017542;28;20087;-84
2023/06/02 09:48:48;;;;;;;8.40;2.20;;;15.70;99.90;;;;;;5035770;28;20049;-84
2023/06/02 09:51:16;;;;;;;13.38;2.78;;;15.80;99.90;;;;;;5036223;28;20045;-87
2023/06/02 09:53:42;;;;;;;10.00;2.53;;;16.10;99.90;;;;;;5011421;28;20053;-87
2023/06/02 09:56:09;;;;;;;8.25;2.15;;;16.10;99.90;;;;;;5034825;28;20483;-83
2023/06/02 09:58:36;;;;;;;7.60;2.22;;;16.20;99.90;;;;;;5027911;28;20056;-82
2023/06/02 10:01:03;;;;;;;10.40;2.72;;;16.70;99.90;;;;;;5019523;28;20037;-82
2023/06/02 10:03:30;;;;;;;9.52;2.65;;;17.10;99.90;;;;;;5033810;28;20065;-85
2023/06/02 10:05:58;;;;;;;8.48;2.63;;;17.20;99.90;;;;;;5001959;28;20041;-86
2023/06/02 10:08:25;;;;;;;10.90;2.35;;;17.30;99.90;;;;;;5035486;28;20510;-81
2023/06/02 10:10:51;;;;;;;11.00;2.40;;;17.50;99.90;;;;;;5053177;28;20288;-81
2023/06/02 10:13:18;;;;;;;9.93;1.85;;;17.40;99.90;;;;;;5037331;28;20033;-80
2023/06/02 10:15:45;;;;;;;14.20;2.38;;;17.30;99.90;;;;;;5055296;28;20037;-81
2023/06/02 10:20:59;;;;;;;8.70;2.22;;;17.50;99.90;;;;;;5038273;28;20044;-82
2023/06/02 10:23:26;;;;;;;10.70;2.50;;;17.40;99.90;;;;;;5020637;28;20128;-82
2023/06/02 10:25:53;;;;;;;8.27;2.70;;;17.10;99.90;;;;;;5037659;28;20098;-80
2023/06/02 10:31:07;;;;;;;9.07;2.35;;;17.90;99.90;;;;;;5054287;28;20053;-81
2023/06/02 10:33:34;;;;;;;10.35;2.22;;;18.00;99.90;;;;;;5037786;28;20041;-89
2023/06/02 10:36:01;;;;;;;11.93;2.95;;;18.40;99.90;;;;;;5021240;28;20049;-81
2023/06/02 10:40:59;;;;;;;11.20;2.75;;;18.80;99.90;;;;;;5018031;28;20045;-81
2023/06/02 10:43:25;;;;;;;13.18;2.83;;;19.10;99.90;;;;;;5000588;28;20042;-80
2023/06/02 10:45:55;;;;;;;6.85;2.55;;;19.30;99.90;;;;;;5015806;28;20131;-80
2023/06/02 10:48:21;;;;;;;12.07;2.67;;;19.30;99.90;;;;;;5024149;28;20040;-83
2023/06/02 10:50:48;;;;;;;10.90;2.40;;;19.30;99.90;;;;;;5036231;28;20060;-80
2023/06/02 10:53:15;;;;;;;9.65;2.40;;;19.20;99.90;;;;;;5020867;28;20441;-84
2023/06/02 10:55:43;;;;;;;11.27;2.50;;;19.50;99.90;;;;;;5036813;28;20045;-83
2023/06/02 10:58:12;;;;;;;8.75;2.28;;;19.80;99.90;;;;;;5019798;28;20079;-82
2023/06/02 11:00:40;;;;;;;10.13;2.70;;;20.20;99.90;;;;;;5054438;28;20075;-83
2023/06/02 11:03:07;;;;;;;10.80;2.58;;;20.40;99.90;;;;;;5053539;28;20040;-82
2023/06/02 11:05:33;;;;;;;8.93;2.35;;;20.20;99.90;;;;;;5036668;28;20110;-82
2023/06/02 11:08:00;;;;;;;8.80;2.40;;;20.30;99.90;;;;;;5020703;28;20072;-84
2023/06/02 11:10:27;;;;;;;10.77;2.42;;;20.40;99.90;;;;;;5019765;28;20056;-85
2023/06/02 11:12:54;;;;;;;10.02;2.72;;;20.80;98.90;;;;;;5020241;28;20048;-85
2023/06/02 11:15:21;;;;;;;10.82;2.90;;;21.00;99.00;;;;;;5036377;28;20056;-85
2023/06/02 11:17:48;;;;;;;16.10;3.28;;;20.90;96.70;;;;;;5035917;28;20060;-85
2023/06/02 11:20:15;;;;;;;8.57;2.40;;;20.80;96.80;;;;;;5036959;28;20041;-86
2023/06/02 11:22:42;;;;;;;12.60;2.70;;;20.80;96.80;;;;;;5019332;28;20045;-85
2023/06/02 11:25:09;;;;;;;11.68;3.90;;;20.80;96.10;;;;;;5036328;28;20080;-85
2023/06/02 11:27:36;;;;;;;13.73;3.40;;;21.10;96.30;;;;;;5036836;28;20041;-84
2023/06/02 11:30:03;;;;;;;10.13;2.55;;;21.10;96.50;;;;;;5030098;28;20045;-84
2023/06/02 11:32:30;;;;;;;11.38;3.50;;;21.30;94.40;;;;;;5001466;28;20372;-83
2023/06/02 11:34:57;;;;;;;11.75;3.00;;;21.40;94.70;;;;;;5020626;28;20124;-84
2023/06/02 11:37:24;;;;;;;10.40;3.50;;;21.90;94.50;;;;;;5036216;28;20464;-84
2023/06/02 11:39:51;;;;;;;10.65;2.97;;;22.30;92.80;;;;;;5037429;28;20048;-84
2023/06/02 11:42:18;;;;;;;11.80;3.90;;;22.60;93.50;;;;;;5020558;28;20501;-83
2023/06/02 11:44:45;;;;;;;12.73;3.53;;;22.70;92.50;;;;;;5052796;28;20067;-84
2023/06/02 11:47:11;;;;;;;12.27;3.88;;;22.80;91.90;;;;;;5036725;28;20053;-84
2023/06/02 11:49:38;;;;;;;14.05;3.78;;;22.90;91.40;;;;;;5035823;28;20045;-84
2023/06/02 11:52:05;;;;;;;13.07;3.90;;;23.20;91.40;;;;;;5036567;28;20049;-83
2023/06/02 11:54:32;;;;;;;10.98;3.75;;;23.30;90.80;;;;;;5053346;28;20351;-83
2023/06/02 11:56:58;;;;;;;11.10;3.53;;;23.50;89.70;;;;;;5035528;28;20041;-82
2023/06/02 11:59:26;;;;;;;12.73;4.07;;;23.50;85.70;;;;;;5036601;28;20079;-83
2023/06/02 12:01:52;;;;;;;14.20;3.92;;;23.60;87.50;;;;;;5053924;28;20040;-82
2023/06/02 12:04:19;;;;;;;13.48;3.58;;;23.40;84.40;;;;;;5018862;28;20056;-83
2023/06/02 12:06:46;;;;;;;10.25;2.60;;;23.70;89.30;;;;;;5054047;28;20041;-84
2023/06/02 12:09:13;;;;;;;14.57;3.65;;;23.90;82.20;;;;;;5035523;28;20060;-83
2023/06/02 12:11:40;;;;;;;12.32;3.60;;;24.00;83.50;;;;;;5053966;28;20037;-82
2023/06/02 12:14:06;;;;;;;12.88;3.88;;;24.40;83.40;;;;;;5019553;28;20040;-82
2023/06/02 12:16:40;;;;;;;14.20;3.65;;;23.50;83.10;;;;;;5052833;28;20037;-83
2023/06/02 12:19:07;;;;;;;13.55;4.05;;;23.70;82.50;;;;;;5036521;28;20048;-82
2023/06/02 12:21:38;;;;;;;14.77;3.95;;;23.80;81.00;;;;;;5015966;28;20037;-82
2023/06/02 12:24:05;;;;;;;15.20;3.80;;;24.10;80.70;;;;;;5032328;28;20049;-82
2023/06/02 12:26:32;;;;;;;11.32;3.90;;;24.40;80.90;;;;;;5020103;28;20472;-82
2023/06/02 12:28:59;;;;;;;13.55;3.95;;;25.00;79.30;;;;;;5037448;28;20079;-82
2023/06/02 12:31:27;;;;;;;13.43;4.03;;;25.00;79.00;;;;;;5018985;28;20049;-82
2023/06/02 12:33:54;;;;;;;12.40;3.65;;;25.00;78.00;;;;;;5019522;28;20069;-82
2023/06/02 12:36:20;;;;;;;12.57;3.67;;;25.10;76.10;;;;;;5019080;28;20037;-82
2023/06/02 12:38:47;;;;;;;9.90;3.45;;;24.80;76.20;;;;;;5051817;28;20459;-82
2023/06/02 12:41:14;;;;;;;13.18;4.00;;;25.10;79.70;;;;;;5024693;28;20049;-86
2023/06/02 12:43:41;;;;;;;12.77;3.72;;;25.40;75.90;;;;;;5019080;28;20395;-81
2023/06/02 12:46:08;;;;;;;15.15;4.00;;;25.40;76.20;;;;;;5019718;28;20057;-82
2023/06/02 12:48:35;;;;;;;11.73;3.75;;;25.50;75.60;;;;;;5037006;28;20132;-82
2023/06/02 12:51:01;;;;;;;11.52;3.45;;;25.30;72.80;;;;;;5018610;28;20357;-83